Time;durP1;ratioP1;P1;durP2;ratioP2;P2;SDS_P1;SDS_P2;PMS_P1;PMS_P2;Temp;Humidity;BMP_temperature;BMP_pressure;BME280_temperature;BME280_humidity;BME280_pressure;Samples;Min_cycle;Max_cycle;Signal;HPM_P1;HPM_P2
2022/08/29 00:02:10;;;;;;;1.30;1.20;;;24.20;35.60;;;;;;6201856;22;20470;-63
2022/08/29 00:04:36;;;;;;;1.50;1.40;;;24.20;35.60;;;;;;6203554;22;20246;-60
2022/08/29 00:07:02;;;;;;;1.30;1.20;;;24.20;35.60;;;;;;6204605;22;20206;-65
2022/08/29 00:09:28;;;;;;;1.73;1.17;;;24.20;35.70;;;;;;6200720;22;20289;-61
2022/08/29 00:11:53;;;;;;;1.80;1.23;;;24.20;35.60;;;;;;6205262;22;20451;-61
2022/08/29 00:14:19;;;;;;;1.30;1.20;;;24.20;35.70;;;;;;6206367;22;21029;-60
2022/08/29 00:16:45;;;;;;;1.13;1.03;;;24.20;35.70;;;;;;6202896;22;20202;-61
2022/08/29 00:19:10;;;;;;;1.40;1.30;;;24.20;35.70;;;;;;6203546;22;20255;-60
2022/08/29 00:21:36;;;;;;;1.50;1.40;;;24.20;35.70;;;;;;6204317;22;20193;-65
2022/08/29 00:24:02;;;;;;;1.63;1.53;;;24.20;35.70;;;;;;6202863;22;20513;-62
2022/08/29 00:26:28;;;;;;;2.23;1.80;;;24.20;35.70;;;;;;6205814;22;20198;-61
2022/08/29 00:28:53;;;;;;;1.20;1.10;;;24.20;35.70;;;;;;6203032;22;20797;-60
2022/08/29 00:31:19;;;;;;;1.20;1.10;;;24.20;35.70;;;;;;6206588;22;20728;-62
2022/08/29 00:33:45;;;;;;;1.50;1.40;;;24.20;35.70;;;;;;6202625;22;20190;-65
2022/08/29 00:36:11;;;;;;;1.60;1.50;;;24.20;35.80;;;;;;6203314;22;20198;-61
2022/08/29 00:38:38;;;;;;;1.30;1.20;;;24.20;35.80;;;;;;6203937;22;20477;-60
2022/08/29 00:41:04;;;;;;;1.30;1.20;;;24.20;35.70;;;;;;6202460;22;20219;-60
2022/08/29 00:43:34;;;;;;;1.50;1.40;;;24.20;35.80;;;;;;6203757;22;20950;-61
2022/08/29 00:46:21;;;;;;;1.77;1.47;;;24.20;35.80;;;;;;6174871;22;20496;-61
2022/08/29 00:49:00;;;;;;;2.03;1.27;;;24.20;35.80;;;;;;6203988;22;20501;-60
2022/08/29 00:51:26;;;;;;;1.43;1.33;;;24.20;35.80;;;;;;6185568;22;20427;-63
2022/08/29 00:53:58;;;;;;;1.37;1.27;;;24.20;35.90;;;;;;6194869;22;20411;-61
2022/08/29 00:56:24;;;;;;;1.30;1.20;;;24.20;35.90;;;;;;6173652;22;20521;-61
2022/08/29 00:58:59;;;;;;;1.67;1.30;;;24.20;35.90;;;;;;6179946;23;20420;-62
2022/08/29 01:01:25;;;;;;;3.73;1.17;;;24.20;35.90;;;;;;6200122;22;20973;-61
2022/08/29 01:03:52;;;;;;;1.10;1.00;;;24.20;35.90;;;;;;6205477;22;20519;-60
2022/08/29 01:06:18;;;;;;;1.40;1.10;;;24.10;35.90;;;;;;6204821;22;20412;-60
2022/08/29 01:08:44;;;;;;;3.10;1.40;;;24.10;35.90;;;;;;6179886;23;20420;-60
2022/08/29 01:14:00;;;;;;;1.23;1.13;;;24.20;36.00;;;;;;6177916;23;20297;-61
2022/08/29 01:16:27;;;;;;;1.47;1.37;;;24.10;35.80;;;;;;6176060;22;20540;-60
2022/08/29 01:18:59;;;;;;;1.43;1.33;;;24.20;36.00;;;;;;6174609;22;20447;-64
2022/08/29 01:21:43;;;;;;;2.07;1.30;;;24.20;36.00;;;;;;6173894;23;20488;-63
2022/08/29 01:24:15;;;;;;;1.57;1.20;;;24.10;35.90;;;;;;6172330;22;20742;-60
2022/08/29 01:26:45;;;;;;;1.23;1.13;;;24.10;35.90;;;;;;6186840;22;20847;-61
2022/08/29 01:29:12;;;;;;;1.60;1.50;;;24.10;35.90;;;;;;6179127;22;20470;-60
2022/08/29 01:31:41;;;;;;;1.53;1.43;;;24.10;35.90;;;;;;6174996;22;20511;-61
2022/08/29 01:34:07;;;;;;;1.17;1.07;;;24.10;35.90;;;;;;6160640;22;20420;-60
2022/08/29 01:36:37;;;;;;;1.20;1.10;;;24.10;35.90;;;;;;6203696;22;20424;-59
2022/08/29 01:39:04;;;;;;;2.00;1.50;;;24.10;36.00;;;;;;6202984;22;20462;-59
2022/08/29 01:41:31;;;;;;;1.40;1.30;;;24.10;36.00;;;;;;6203652;22;20981;-61
2022/08/29 01:43:58;;;;;;;1.40;1.30;;;24.10;35.90;;;;;;6203410;22;20418;-63
2022/08/29 01:46:30;;;;;;;1.60;1.50;;;24.10;36.00;;;;;;6204199;22;20419;-60
2022/08/29 01:48:56;;;;;;;1.60;1.50;;;24.10;35.90;;;;;;6205481;22;20794;-63
2022/08/29 01:51:23;;;;;;;1.40;1.30;;;24.10;36.00;;;;;;6208454;22;20419;-61
2022/08/29 01:53:49;;;;;;;1.53;1.40;;;24.10;36.20;;;;;;6204642;22;20411;-61
2022/08/29 01:56:20;;;;;;;1.50;1.40;;;24.10;36.00;;;;;;6203999;22;20527;-62
2022/08/29 01:58:48;;;;;;;1.50;1.40;;;24.10;36.30;;;;;;6204978;22;20415;-60
2022/08/29 02:01:17;;;;;;;1.57;1.40;;;24.10;36.00;;;;;;6203751;22;20416;-61
2022/08/29 02:03:44;;;;;;;1.53;1.43;;;24.10;36.00;;;;;;6205509;22;20482;-60
2022/08/29 02:06:10;;;;;;;1.53;1.43;;;24.10;36.00;;;;;;6203072;22;21163;-62
2022/08/29 02:08:41;;;;;;;1.43;1.33;;;24.10;36.00;;;;;;6205572;22;20439;-60
2022/08/29 02:11:09;;;;;;;1.20;1.10;;;24.10;36.00;;;;;;6204739;22;20758;-60
2022/08/29 02:13:54;;;;;;;1.50;1.40;;;24.10;36.10;;;;;;6205929;22;20490;-59
2022/08/29 02:16:21;;;;;;;1.40;1.30;;;24.10;36.10;;;;;;6203069;22;20414;-61
2022/08/29 02:18:47;;;;;;;1.47;1.30;;;24.10;36.10;;;;;;6203816;22;20465;-60
2022/08/29 02:21:16;;;;;;;1.30;1.20;;;24.10;36.10;;;;;;6203911;22;20451;-61
2022/08/29 02:23:43;;;;;;;2.00;1.40;;;24.10;36.10;;;;;;6204973;22;20439;-60
2022/08/29 02:26:09;;;;;;;2.90;1.20;;;24.10;36.10;;;;;;6201944;22;20969;-61
2022/08/29 02:28:36;;;;;;;1.40;1.30;;;24.10;36.10;;;;;;6204625;22;20470;-60
2022/08/29 02:31:03;;;;;;;1.30;1.20;;;24.10;36.10;;;;;;6204722;22;20202;-61
2022/08/29 02:33:30;;;;;;;1.33;1.10;;;24.10;36.10;;;;;;6206121;22;20530;-61
2022/08/29 02:35:56;;;;;;;1.40;1.30;;;24.10;36.10;;;;;;6205723;22;21057;-63
2022/08/29 02:38:22;;;;;;;1.53;1.43;;;24.10;36.20;;;;;;6207750;22;20887;-63
2022/08/29 02:40:49;;;;;;;1.30;1.20;;;24.10;36.10;;;;;;6206105;22;20422;-60
2022/08/29 02:43:15;;;;;;;1.50;1.40;;;24.10;36.10;;;;;;6184627;22;20212;-60
2022/08/29 02:45:42;;;;;;;1.53;1.43;;;24.10;36.10;;;;;;6199540;23;20416;-60
2022/08/29 02:48:08;;;;;;;1.50;1.40;;;24.10;36.10;;;;;;6200521;22;20426;-64
2022/08/29 02:50:34;;;;;;;1.50;1.30;;;24.10;36.20;;;;;;6197135;22;20527;-60
2022/08/29 02:53:00;;;;;;;2.00;1.80;;;24.10;36.20;;;;;;6205764;22;21081;-60
2022/08/29 02:55:26;;;;;;;1.57;1.47;;;24.10;36.20;;;;;;6204876;22;20434;-60
2022/08/29 02:57:53;;;;;;;1.70;1.60;;;24.10;36.20;;;;;;6205928;22;20194;-60
2022/08/29 03:00:24;;;;;;;1.47;1.37;;;24.00;36.10;;;;;;6202854;22;20419;-61
2022/08/29 03:02:51;;;;;;;1.50;1.40;;;24.10;36.30;;;;;;6186808;22;20403;-61
2022/08/29 03:05:20;;;;;;;1.43;1.33;;;24.10;36.20;;;;;;6203538;22;20545;-60
2022/08/29 03:07:46;;;;;;;1.23;1.13;;;24.10;36.20;;;;;;6203845;22;20471;-60
2022/08/29 03:10:12;;;;;;;1.37;1.27;;;24.10;36.30;;;;;;6182169;22;20488;-62
2022/08/29 03:12:38;;;;;;;1.40;1.30;;;24.10;36.30;;;;;;6176323;23;20245;-61
2022/08/29 03:15:05;;;;;;;1.50;1.40;;;24.10;37.00;;;;;;6170625;22;20205;-60
2022/08/29 03:17:31;;;;;;;1.33;1.23;;;24.00;36.10;;;;;;6173507;22;20416;-61
2022/08/29 03:19:57;;;;;;;1.90;1.50;;;24.00;36.10;;;;;;6173146;22;20432;-65
2022/08/29 03:22:24;;;;;;;1.50;1.40;;;24.10;36.30;;;;;;6168324;22;20190;-62
2022/08/29 03:24:51;;;;;;;2.60;1.37;;;24.00;36.20;;;;;;6173524;22;20420;-59
2022/08/29 03:27:18;;;;;;;1.40;1.30;;;24.00;36.10;;;;;;6168251;22;20471;-59
2022/08/29 03:29:44;;;;;;;1.60;1.50;;;24.00;36.20;;;;;;6165005;22;20429;-61
2022/08/29 03:32:10;;;;;;;2.00;1.30;;;24.00;36.20;;;;;;6168895;22;20459;-60
2022/08/29 03:34:36;;;;;;;1.30;1.20;;;24.00;36.20;;;;;;6169043;22;20419;-61
2022/08/29 03:37:02;;;;;;;1.20;1.10;;;24.00;36.20;;;;;;6171916;23;20479;-60
2022/08/29 03:39:28;;;;;;;1.60;1.50;;;24.00;36.20;;;;;;6169514;22;20474;-63
2022/08/29 03:41:55;;;;;;;1.40;1.30;;;24.00;36.20;;;;;;6173803;22;20512;-64
2022/08/29 03:44:22;;;;;;;1.30;1.20;;;24.00;36.20;;;;;;6170426;22;20190;-60
2022/08/29 03:46:47;;;;;;;1.43;1.33;;;24.00;36.20;;;;;;6167857;22;20486;-60
2022/08/29 03:49:14;;;;;;;1.53;1.43;;;24.00;36.20;;;;;;6169464;22;20500;-61
2022/08/29 03:51:41;;;;;;;1.57;1.47;;;24.00;36.20;;;;;;6164054;22;20190;-60
2022/08/29 03:54:08;;;;;;;1.67;1.23;;;24.00;36.20;;;;;;6166143;22;20471;-62
2022/08/29 03:56:33;;;;;;;1.30;1.20;;;24.00;36.20;;;;;;6170961;22;20437;-60
2022/08/29 03:59:00;;;;;;;1.60;1.50;;;24.10;36.40;;;;;;6179515;23;20423;-61
2022/08/29 04:01:28;;;;;;;1.50;1.40;;;24.00;36.20;;;;;;6170911;22;20198;-62
2022/08/29 04:03:55;;;;;;;1.43;1.33;;;24.00;36.30;;;;;;6163652;22;20793;-60
2022/08/29 04:06:22;;;;;;;1.20;1.10;;;24.00;36.30;;;;;;6173907;22;20416;-62
2022/08/29 04:08:50;;;;;;;1.50;1.40;;;24.00;36.30;;;;;;6168772;22;20693;-60
2022/08/29 04:11:19;;;;;;;2.20;1.70;;;24.00;36.40;;;;;;6173225;22;20428;-59
2022/08/29 04:13:47;;;;;;;1.97;1.67;;;24.00;36.30;;;;;;6156111;23;20421;-60
2022/08/29 04:16:18;;;;;;;1.40;1.30;;;24.00;36.30;;;;;;6169831;22;20435;-61
2022/08/29 04:18:44;;;;;;;1.50;1.40;;;24.00;36.30;;;;;;6158993;22;20464;-61
2022/08/29 04:21:10;;;;;;;1.80;1.70;;;24.00;36.30;;;;;;6157531;23;20719;-61
2022/08/29 04:23:38;;;;;;;1.67;1.57;;;24.00;36.30;;;;;;6195558;23;20572;-63
2022/08/29 04:26:05;;;;;;;2.13;2.03;;;24.00;36.30;;;;;;6151767;22;20412;-64
2022/08/29 04:28:32;;;;;;;1.50;1.40;;;24.00;36.30;;;;;;6172748;23;20412;-60
2022/08/29 04:31:00;;;;;;;1.67;1.57;;;24.00;36.30;;;;;;6159817;22;20424;-62
2022/08/29 04:33:26;;;;;;;2.23;1.67;;;24.00;36.20;;;;;;6173276;22;20492;-60
2022/08/29 04:35:52;;;;;;;2.10;1.47;;;24.10;36.30;;;;;;6166988;23;20409;-60
2022/08/29 04:38:18;;;;;;;1.60;1.50;;;24.10;36.30;;;;;;6165508;22;20436;-60
2022/08/29 04:40:45;;;;;;;2.57;1.63;;;24.10;36.30;;;;;;6161309;22;20208;-60
2022/08/29 04:43:12;;;;;;;1.60;1.50;;;24.10;36.30;;;;;;6164671;22;20198;-59
2022/08/29 04:45:39;;;;;;;1.40;1.30;;;24.10;36.20;;;;;;6167088;22;20415;-60
2022/08/29 04:48:10;;;;;;;1.80;1.70;;;24.10;36.20;;;;;;6158101;22;20439;-62
2022/08/29 04:50:38;;;;;;;2.73;1.77;;;24.10;36.20;;;;;;6148645;23;20435;-60
2022/08/29 04:53:04;;;;;;;1.93;1.83;;;24.10;36.20;;;;;;6172887;22;20456;-61
2022/08/29 04:55:32;;;;;;;1.50;1.40;;;24.10;36.20;;;;;;6195054;22;20442;-65
2022/08/29 04:57:58;;;;;;;1.67;1.57;;;24.10;36.20;;;;;;6188689;22;20209;-64
2022/08/29 05:00:27;;;;;;;1.80;1.70;;;24.10;36.20;;;;;;6178796;22;20503;-64
2022/08/29 05:02:54;;;;;;;1.90;1.80;;;24.10;36.20;;;;;;6164442;23;20930;-62
2022/08/29 05:05:20;;;;;;;1.73;1.63;;;24.10;36.10;;;;;;6178686;23;20418;-62
2022/08/29 05:07:46;;;;;;;1.43;1.20;;;24.10;36.10;;;;;;6191989;22;20912;-62
2022/08/29 05:10:16;;;;;;;1.40;1.30;;;24.10;36.10;;;;;;6170190;22;20210;-62
2022/08/29 05:12:42;;;;;;;2.30;1.30;;;24.10;36.10;;;;;;6178880;22;20189;-60
2022/08/29 05:15:09;;;;;;;1.50;1.40;;;24.10;36.10;;;;;;6188371;22;20420;-60
2022/08/29 05:17:37;;;;;;;1.60;1.40;;;24.10;36.10;;;;;;6176568;22;20495;-60
2022/08/29 05:20:05;;;;;;;1.57;1.47;;;24.10;36.10;;;;;;6169780;23;20935;-64
2022/08/29 05:22:33;;;;;;;1.63;1.53;;;24.10;36.10;;;;;;6189586;22;20407;-62
2022/08/29 05:24:58;;;;;;;2.00;1.50;;;24.10;36.20;;;;;;6188257;22;20987;-63
2022/08/29 05:27:25;;;;;;;1.70;1.60;;;24.10;36.10;;;;;;6186122;23;20422;-61
2022/08/29 05:29:52;;;;;;;2.33;1.27;;;24.10;36.10;;;;;;6172896;22;20211;-65
2022/08/29 05:32:20;;;;;;;1.97;1.80;;;24.10;36.10;;;;;;6200128;22;20465;-63
2022/08/29 05:34:47;;;;;;;1.50;1.40;;;24.10;36.10;;;;;;6170614;23;20424;-63
2022/08/29 05:37:18;;;;;;;2.30;1.63;;;24.10;36.10;;;;;;6200249;22;20419;-62
2022/08/29 05:39:46;;;;;;;1.50;1.40;;;24.10;36.10;;;;;;6176756;22;20416;-64
2022/08/29 05:42:15;;;;;;;1.70;1.60;;;24.10;36.10;;;;;;6184129;22;21188;-61
2022/08/29 05:44:41;;;;;;;1.70;1.60;;;24.10;36.10;;;;;;6170893;22;20520;-60
2022/08/29 05:47:12;;;;;;;1.60;1.50;;;24.10;36.10;;;;;;6192697;22;20419;-62
2022/08/29 05:49:41;;;;;;;1.80;1.63;;;24.10;36.10;;;;;;6178547;22;20460;-62
2022/08/29 05:52:08;;;;;;;1.70;1.50;;;24.10;36.10;;;;;;6173449;22;20420;-62
2022/08/29 05:54:36;;;;;;;2.90;1.87;;;24.10;36.10;;;;;;6185842;22;20416;-61
2022/08/29 05:57:02;;;;;;;1.60;1.50;;;24.10;36.10;;;;;;6178678;22;20416;-61
2022/08/29 05:59:31;;;;;;;1.80;1.70;;;24.10;36.10;;;;;;6198348;22;20416;-62
2022/08/29 06:01:57;;;;;;;2.47;1.70;;;24.10;36.20;;;;;;6205944;22;20961;-62
2022/08/29 06:04:24;;;;;;;2.03;1.77;;;24.10;36.20;;;;;;6188726;22;20423;-62
2022/08/29 06:06:49;;;;;;;2.47;1.70;;;24.10;36.10;;;;;;6202004;22;20419;-61
2022/08/29 06:09:16;;;;;;;5.20;1.83;;;24.10;36.20;;;;;;6172175;23;20412;-64
2022/08/29 06:11:46;;;;;;;1.50;1.40;;;24.10;36.10;;;;;;6165285;23;20217;-64
2022/08/29 06:14:13;;;;;;;1.80;1.70;;;24.10;36.20;;;;;;6196641;22;21018;-60
2022/08/29 06:16:39;;;;;;;1.60;1.50;;;24.10;36.10;;;;;;6183494;22;20828;-64
2022/08/29 06:19:05;;;;;;;2.00;1.60;;;24.10;36.20;;;;;;6191206;22;20427;-60
2022/08/29 06:21:31;;;;;;;2.10;2.00;;;24.10;36.20;;;;;;6202770;22;20190;-61
2022/08/29 06:24:00;;;;;;;1.70;1.60;;;24.10;36.20;;;;;;6177339;22;21005;-62
2022/08/29 06:26:26;;;;;;;1.80;1.70;;;24.10;36.20;;;;;;6174107;22;20408;-60
2022/08/29 06:28:53;;;;;;;2.50;1.50;;;24.10;36.20;;;;;;6183363;22;20502;-61
2022/08/29 06:31:25;;;;;;;2.90;1.70;;;24.10;36.20;;;;;;6140863;23;20427;-61
2022/08/29 06:33:53;;;;;;;1.80;1.70;;;24.10;36.20;;;;;;6191297;22;20511;-62
2022/08/29 06:36:20;;;;;;;1.77;1.57;;;24.10;36.20;;;;;;6170111;22;20419;-62
2022/08/29 06:38:47;;;;;;;1.90;1.60;;;24.10;36.30;;;;;;6198570;23;20416;-60
2022/08/29 06:41:15;;;;;;;1.60;1.50;;;24.10;36.30;;;;;;6180430;22;21000;-60
2022/08/29 06:43:41;;;;;;;1.60;1.50;;;24.10;36.30;;;;;;6200836;22;20495;-62
2022/08/29 06:46:18;;;;;;;2.63;1.90;;;24.10;36.30;;;;;;6170732;22;20978;-60
2022/08/29 06:48:45;;;;;;;1.50;1.40;;;24.10;36.30;;;;;;6178408;22;20416;-61
2022/08/29 06:51:11;;;;;;;1.77;1.67;;;24.10;36.30;;;;;;6191649;22;20447;-60
2022/08/29 06:53:37;;;;;;;1.70;1.60;;;24.10;36.30;;;;;;6188843;22;20446;-66
2022/08/29 06:56:05;;;;;;;2.10;2.00;;;24.10;36.50;;;;;;6195905;22;20202;-60
2022/08/29 06:58:32;;;;;;;2.67;1.80;;;24.10;36.40;;;;;;6177312;22;20410;-61
2022/08/29 07:00:58;;;;;;;2.13;1.70;;;24.10;36.50;;;;;;6190975;22;20805;-62
2022/08/29 07:03:24;;;;;;;1.80;1.70;;;24.10;36.50;;;;;;6164717;23;20572;-64
2022/08/29 07:05:53;;;;;;;1.80;1.70;;;24.10;36.50;;;;;;6188661;23;20413;-61
2022/08/29 07:08:22;;;;;;;1.77;1.67;;;24.10;36.60;;;;;;6170908;22;20578;-62
2022/08/29 07:10:48;;;;;;;1.63;1.53;;;24.20;36.60;;;;;;6183331;22;20424;-61
2022/08/29 07:13:14;;;;;;;1.80;1.70;;;24.10;36.50;;;;;;6192785;22;20422;-60
2022/08/29 07:15:40;;;;;;;1.43;1.30;;;24.20;36.60;;;;;;6190724;22;20190;-61
2022/08/29 07:18:06;;;;;;;1.50;1.40;;;24.10;36.60;;;;;;6193554;22;20450;-62
2022/08/29 07:20:32;;;;;;;1.70;1.60;;;24.10;36.60;;;;;;6170853;22;20506;-60
2022/08/29 07:22:58;;;;;;;1.80;1.70;;;24.20;36.70;;;;;;6184556;22;20553;-64
2022/08/29 07:25:26;;;;;;;1.90;1.80;;;24.10;36.60;;;;;;6168582;22;20200;-62
2022/08/29 07:27:52;;;;;;;1.60;1.50;;;24.20;36.60;;;;;;6203749;22;20423;-61
2022/08/29 07:30:19;;;;;;;1.60;1.50;;;24.10;36.60;;;;;;6194445;22;20505;-61
2022/08/29 07:32:46;;;;;;;1.50;1.40;;;24.10;36.70;;;;;;6200438;22;20436;-62
2022/08/29 07:35:15;;;;;;;1.90;1.77;;;24.20;36.70;;;;;;6173535;22;20448;-61
2022/08/29 07:37:40;;;;;;;1.60;1.50;;;24.20;36.70;;;;;;6176743;23;20423;-62
2022/08/29 07:40:09;;;;;;;1.40;1.30;;;24.20;36.80;;;;;;6180041;22;20424;-62
2022/08/29 07:42:36;;;;;;;1.50;1.40;;;24.20;36.70;;;;;;6177377;22;20942;-61
2022/08/29 07:45:04;;;;;;;1.97;1.77;;;24.20;36.70;;;;;;6169101;22;20424;-67
2022/08/29 07:47:31;;;;;;;5.07;1.80;;;24.20;36.80;;;;;;6170977;23;20415;-64
2022/08/29 07:49:58;;;;;;;2.60;1.90;;;24.20;36.80;;;;;;6165061;22;20428;-63
2022/08/29 07:52:24;;;;;;;6.20;1.67;;;24.20;37.00;;;;;;6192805;22;20448;-61
2022/08/29 07:54:50;;;;;;;3.60;1.90;;;24.20;37.00;;;;;;6174962;22;20454;-61
2022/08/29 07:57:18;;;;;;;3.10;1.60;;;24.20;36.90;;;;;;6170115;23;20201;-60
2022/08/29 07:59:45;;;;;;;4.10;1.43;;;24.20;37.00;;;;;;6181696;22;20505;-61
2022/08/29 08:02:11;;;;;;;3.40;1.40;;;24.20;37.00;;;;;;6187154;22;20415;-61
2022/08/29 08:04:37;;;;;;;6.40;1.67;;;24.20;37.00;;;;;;6196016;22;20454;-61
2022/08/29 08:07:04;;;;;;;1.80;1.70;;;24.20;36.90;;;;;;6189742;22;20409;-62
2022/08/29 08:09:31;;;;;;;2.63;1.60;;;24.20;36.80;;;;;;6169345;23;20190;-64
2022/08/29 08:11:58;;;;;;;1.60;1.50;;;24.20;36.80;;;;;;6203357;22;20423;-64
2022/08/29 08:14:26;;;;;;;4.10;1.87;;;24.20;36.70;;;;;;6191423;22;20906;-61
2022/08/29 08:16:52;;;;;;;2.10;2.00;;;24.20;36.70;;;;;;6196645;22;20494;-61
2022/08/29 08:19:18;;;;;;;1.70;1.60;;;24.20;36.70;;;;;;6156417;23;20732;-60
2022/08/29 08:21:44;;;;;;;2.47;1.70;;;24.20;36.70;;;;;;6177001;22;20210;-62
2022/08/29 08:24:11;;;;;;;2.63;1.90;;;24.20;36.60;;;;;;6179333;23;20278;-61
2022/08/29 08:26:37;;;;;;;2.03;1.83;;;24.20;36.60;;;;;;6162664;22;20544;-60
2022/08/29 08:29:03;;;;;;;2.30;1.77;;;24.20;36.60;;;;;;6170613;22;20248;-61
2022/08/29 08:31:30;;;;;;;2.20;2.00;;;24.20;36.60;;;;;;6182853;23;20462;-65
2022/08/29 08:33:56;;;;;;;2.23;1.90;;;24.20;36.60;;;;;;6172275;23;20462;-61
2022/08/29 08:36:28;;;;;;;2.63;1.80;;;24.20;36.60;;;;;;6174628;23;20404;-62
2022/08/29 08:38:55;;;;;;;2.40;2.07;;;24.20;36.60;;;;;;6174041;22;20616;-63
2022/08/29 08:41:36;;;;;;;3.10;2.07;;;24.20;36.50;;;;;;6178584;22;20722;-61
2022/08/29 08:44:09;;;;;;;2.03;1.70;;;24.20;36.60;;;;;;6183332;23;20421;-60
2022/08/29 08:46:42;;;;;;;1.70;1.60;;;24.20;36.70;;;;;;6203400;22;20426;-65
2022/08/29 08:49:15;;;;;;;5.50;1.80;;;24.20;36.60;;;;;;6205680;22;20501;-60
2022/08/29 08:51:46;;;;;;;1.90;1.80;;;24.20;36.60;;;;;;6203291;22;20427;-62
2022/08/29 08:54:23;;;;;;;1.70;1.60;;;24.20;36.60;;;;;;6202980;22;20420;-62
2022/08/29 08:57:11;;;;;;;3.00;2.13;;;24.20;36.60;;;;;;6207377;22;20782;-61
2022/08/29 08:59:41;;;;;;;2.03;1.83;;;24.20;36.50;;;;;;6205981;22;20985;-60
2022/08/29 09:02:33;;;;;;;1.60;1.50;;;24.20;36.40;;;;;;6205786;22;20423;-61
2022/08/29 09:05:23;;;;;;;2.07;1.80;;;24.20;36.40;;;;;;6206054;22;20480;-64
2022/08/29 09:08:09;;;;;;;1.77;1.67;;;24.20;36.30;;;;;;6205175;23;20558;-61
2022/08/29 09:11:05;;;;;;;2.53;1.63;;;24.20;36.40;;;;;;6203942;22;20431;-61
2022/08/29 09:13:35;;;;;;;1.70;1.60;;;24.20;36.30;;;;;;6157088;23;20423;-61
2022/08/29 09:16:07;;;;;;;1.63;1.53;;;24.20;36.30;;;;;;6207081;22;20511;-62
2022/08/29 09:18:39;;;;;;;2.27;1.80;;;24.20;36.20;;;;;;6208136;22;20431;-61
2022/08/29 09:21:18;;;;;;;1.80;1.70;;;24.20;36.20;;;;;;6205789;22;20434;-60
2022/08/29 09:23:46;;;;;;;3.63;1.50;;;24.20;36.10;;;;;;6207940;22;20427;-62
2022/08/29 09:26:18;;;;;;;2.20;1.70;;;24.20;36.20;;;;;;6206126;22;20519;-61
2022/08/29 09:28:44;;;;;;;1.77;1.67;;;24.20;36.10;;;;;;6207849;22;20493;-62
2022/08/29 09:31:29;;;;;;;2.90;1.70;;;24.10;36.00;;;;;;6207661;22;20485;-62
2022/08/29 09:33:58;;;;;;;1.70;1.57;;;24.20;36.10;;;;;;6195101;22;20494;-62
2022/08/29 09:36:51;;;;;;;2.13;1.53;;;24.10;35.90;;;;;;6207928;22;20435;-65
2022/08/29 09:39:30;;;;;;;2.00;1.90;;;24.10;35.90;;;;;;6202182;22;20492;-63
2022/08/29 09:41:57;;;;;;;2.70;1.73;;;24.10;35.90;;;;;;6205498;22;20412;-62
2022/08/29 09:44:33;;;;;;;2.13;1.90;;;24.10;35.90;;;;;;6207671;22;20557;-63
2022/08/29 09:47:09;;;;;;;1.80;1.70;;;24.10;35.80;;;;;;6202933;22;20426;-64
2022/08/29 09:49:37;;;;;;;1.60;1.37;;;24.10;35.80;;;;;;6204472;22;20476;-61
2022/08/29 09:52:15;;;;;;;1.70;1.43;;;24.10;35.80;;;;;;6205794;22;20430;-61
2022/08/29 09:54:43;;;;;;;1.70;1.40;;;24.10;35.70;;;;;;6207659;22;20890;-60
2022/08/29 09:57:17;;;;;;;1.90;1.47;;;24.10;35.70;;;;;;6205433;22;20420;-61
2022/08/29 09:59:46;;;;;;;1.50;1.30;;;24.10;35.70;;;;;;6206856;22;20493;-61
2022/08/29 10:02:28;;;;;;;1.50;1.40;;;24.10;35.70;;;;;;6206640;22;20462;-62
2022/08/29 10:05:05;;;;;;;1.73;1.63;;;24.10;35.70;;;;;;6176121;23;20435;-63
2022/08/29 10:07:34;;;;;;;1.80;1.70;;;24.10;35.70;;;;;;6175750;23;20737;-62
2022/08/29 10:10:12;;;;;;;1.90;1.50;;;24.10;35.70;;;;;;6175959;23;20932;-61
2022/08/29 10:13:15;;;;;;;2.17;1.40;;;24.10;35.60;;;;;;6195893;22;20454;-61
2022/08/29 10:16:09;;;;;;;1.50;1.40;;;24.10;35.60;;;;;;6205206;22;20889;-62
2022/08/29 10:18:59;;;;;;;1.60;1.50;;;24.10;35.60;;;;;;6108126;23;20436;-66
2022/08/29 10:21:48;;;;;;;1.70;1.60;;;24.10;35.60;;;;;;6204421;22;20840;-62
2022/08/29 10:24:47;;;;;;;1.47;1.37;;;24.00;35.50;;;;;;6192676;22;20430;-62
2022/08/29 10:27:28;;;;;;;1.90;1.80;;;24.00;35.50;;;;;;6170446;23;20416;-60
2022/08/29 10:30:14;;;;;;;1.70;1.60;;;24.00;35.50;;;;;;6204827;22;20431;-65
2022/08/29 10:32:56;;;;;;;1.60;1.50;;;24.00;35.50;;;;;;6207117;22;20431;-63
2022/08/29 10:35:38;;;;;;;1.70;1.60;;;24.00;35.40;;;;;;6195440;23;20432;-66
2022/08/29 10:38:12;;;;;;;1.90;1.70;;;24.00;35.50;;;;;;6204886;22;20435;-63
2022/08/29 10:40:52;;;;;;;1.60;1.40;;;24.10;35.60;;;;;;6205221;22;20414;-61
2022/08/29 10:43:50;;;;;;;2.87;1.83;;;24.10;35.50;;;;;;6207026;22;20428;-60
2022/08/29 10:46:34;;;;;;;2.20;1.37;;;24.00;35.30;;;;;;6188212;22;20417;-61
2022/08/29 10:49:28;;;;;;;2.47;1.53;;;24.10;35.50;;;;;;6194027;22;20418;-63
2022/08/29 10:52:00;;;;;;;2.20;1.90;;;24.00;35.30;;;;;;6198531;22;20821;-62
2022/08/29 10:54:31;;;;;;;2.30;1.60;;;24.00;35.30;;;;;;6196079;22;20418;-61
2022/08/29 10:57:00;;;;;;;1.83;1.50;;;24.10;35.50;;;;;;6208400;22;20531;-62
2022/08/29 10:59:49;;;;;;;1.70;1.60;;;24.00;35.20;;;;;;6204261;22;20412;-64
2022/08/29 11:02:39;;;;;;;9.87;2.27;;;24.00;35.20;;;;;;6203763;22;20938;-64
2022/08/29 11:05:14;;;;;;;2.13;1.47;;;24.00;35.30;;;;;;6190340;22;20499;-64
2022/08/29 11:07:45;;;;;;;8.70;1.87;;;24.00;35.50;;;;;;6206607;22;20414;-64
2022/08/29 11:10:22;;;;;;;1.63;1.53;;;24.10;35.60;;;;;;6206259;22;20463;-65
2022/08/29 11:13:00;;;;;;;3.23;1.70;;;24.10;35.60;;;;;;6205621;22;20419;-64
2022/08/29 11:15:42;;;;;;;2.53;1.83;;;24.10;35.70;;;;;;6175486;23;20423;-64
2022/08/29 11:18:23;;;;;;;1.90;1.80;;;24.10;35.80;;;;;;6200067;23;20436;-65
2022/08/29 11:21:00;;;;;;;2.43;1.63;;;24.10;35.80;;;;;;6156996;23;20475;-65
2022/08/29 11:23:37;;;;;;;1.63;1.53;;;24.10;36.00;;;;;;6173530;23;21040;-64
2022/08/29 11:26:21;;;;;;;1.77;1.67;;;24.10;36.00;;;;;;6177730;23;20431;-61
2022/08/29 11:29:14;;;;;;;3.63;2.20;;;24.10;36.10;;;;;;6172077;23;20851;-65
2022/08/29 11:31:46;;;;;;;3.00;1.97;;;24.10;36.30;;;;;;6203648;22;20435;-63
2022/08/29 11:34:53;;;;;;;1.80;1.70;;;24.20;36.30;;;;;;6202935;23;20419;-62
2022/08/29 11:37:52;;;;;;;1.93;1.83;;;24.20;36.10;;;;;;6128245;22;20411;-62
2022/08/29 11:40:41;;;;;;;2.10;2.00;;;24.30;37.00;;;;;;6176736;23;20806;-64
2022/08/29 11:43:13;;;;;;;1.90;1.80;;;24.30;36.10;;;;;;6199926;22;20412;-63
2022/08/29 11:45:42;;;;;;;2.67;2.47;;;24.30;36.10;;;;;;6202995;22;20419;-63
2022/08/29 11:48:19;;;;;;;2.40;2.20;;;24.40;36.20;;;;;;6203474;22;20436;-63
2022/08/29 11:50:45;;;;;;;3.27;2.33;;;24.40;36.10;;;;;;6158231;22;21220;-65
2022/08/29 11:53:23;;;;;;;2.20;2.10;;;24.40;36.10;;;;;;6200433;22;20954;-62
2022/08/29 11:56:13;;;;;;;3.20;2.20;;;24.40;36.10;;;;;;6205579;22;20414;-62
2022/08/29 11:58:42;;;;;;;2.30;2.10;;;24.40;36.00;;;;;;6201720;22;20477;-62
2022/08/29 12:01:36;;;;;;;1.90;1.80;;;24.50;36.10;;;;;;6178372;23;20448;-62
2022/08/29 12:04:07;;;;;;;1.93;1.83;;;24.50;36.10;;;;;;6190403;22;20423;-64
2022/08/29 12:07:02;;;;;;;2.17;1.90;;;24.50;36.10;;;;;;6177486;22;20415;-62
2022/08/29 12:09:55;;;;;;;2.13;2.03;;;24.50;36.10;;;;;;6181197;23;20412;-63
2022/08/29 12:12:45;;;;;;;3.53;1.90;;;24.50;36.10;;;;;;6186709;22;20420;-61
2022/08/29 12:15:26;;;;;;;3.63;2.20;;;24.50;36.10;;;;;;6193137;23;20442;-61
2022/08/29 12:18:01;;;;;;;2.33;2.23;;;24.50;36.10;;;;;;6204369;22;20882;-62
2022/08/29 12:20:29;;;;;;;2.13;1.93;;;24.50;36.10;;;;;;6196169;22;20415;-62
2022/08/29 12:23:04;;;;;;;1.90;1.80;;;24.40;36.10;;;;;;6198816;22;20420;-67
2022/08/29 12:25:55;;;;;;;2.17;2.07;;;24.40;36.10;;;;;;6176866;23;20419;-62
2022/08/29 12:28:20;;;;;;;2.57;2.37;;;24.40;36.10;;;;;;6169014;23;20414;-63
2022/08/29 12:31:08;;;;;;;1.80;1.70;;;24.40;36.10;;;;;;6176056;23;20807;-62
2022/08/29 12:34:03;;;;;;;1.83;1.73;;;24.40;36.10;;;;;;6174498;22;20199;-63
2022/08/29 12:36:55;;;;;;;2.27;2.07;;;24.40;36.10;;;;;;6164900;22;20416;-63
2022/08/29 12:39:58;;;;;;;2.10;2.00;;;24.40;36.20;;;;;;6173847;23;20431;-62
2022/08/29 12:42:52;;;;;;;2.10;1.90;;;24.40;36.10;;;;;;6199370;23;20403;-62
2022/08/29 12:45:26;;;;;;;2.20;1.80;;;24.40;36.20;;;;;;6204456;22;20410;-61
2022/08/29 12:47:56;;;;;;;2.33;2.10;;;24.40;36.20;;;;;;6193416;22;20403;-64
2022/08/29 12:50:29;;;;;;;2.00;1.90;;;24.40;36.20;;;;;;6192653;22;20705;-63
2022/08/29 12:53:06;;;;;;;2.67;2.47;;;24.40;36.20;;;;;;6192135;22;20415;-65
2022/08/29 12:55:39;;;;;;;2.10;2.00;;;24.40;36.20;;;;;;6202308;22;20481;-61
2022/08/29 12:58:07;;;;;;;2.20;2.10;;;24.40;36.30;;;;;;6206026;22;20454;-63
2022/08/29 13:00:34;;;;;;;2.13;2.03;;;24.30;36.20;;;;;;6205953;22;20897;-62
2022/08/29 13:03:10;;;;;;;2.23;2.13;;;24.30;36.20;;;;;;6205922;22;20414;-62
2022/08/29 13:05:39;;;;;;;2.40;2.30;;;24.30;36.20;;;;;;6204891;22;20511;-61
2022/08/29 13:08:11;;;;;;;2.30;2.20;;;24.30;36.20;;;;;;6204311;22;20465;-63
2022/08/29 13:10:40;;;;;;;2.00;1.90;;;24.30;36.20;;;;;;6203293;22;20507;-63
2022/08/29 13:13:17;;;;;;;3.77;2.20;;;24.30;36.20;;;;;;6204075;22;20414;-61